sensor_id;sensor_type;location;lat;lon;timestamp;temperature;humidity
506;DHT22;551;48.524;9.056;2023-11-19T00:00:34;9.90;1.00
506;DHT22;551;48.524;9.056;2023-11-19T00:03:00;9.90;1.00
506;DHT22;551;48.524;9.056;2023-11-19T00:05:25;9.90;1.00
506;DHT22;551;48.524;9.056;2023-11-19T00:07:52;9.90;1.00
506;DHT22;551;48.524;9.056;2023-11-19T00:10:18;9.90;1.00
506;DHT22;551;48.524;9.056;2023-11-19T00:12:46;9.90;1.00
506;DHT22;551;48.524;9.056;2023-11-19T00:15:15;9.90;1.00
506;DHT22;551;48.524;9.056;2023-11-19T00:17:42;9.90;1.00
506;DHT22;551;48.524;9.056;2023-11-19T00:20:14;9.90;1.00
506;DHT22;551;48.524;9.056;2023-11-19T00:22:40;10.00;1.00
506;DHT22;551;48.524;9.056;2023-11-19T00:25:07;10.00;1.00
506;DHT22;551;48.524;9.056;2023-11-19T00:27:32;10.00;1.00
506;DHT22;551;48.524;9.056;2023-11-19T00:30:01;10.00;1.00
506;DHT22;551;48.524;9.056;2023-11-19T00:32:27;10.10;1.00
506;DHT22;551;48.524;9.056;2023-11-19T00:34:52;10.10;1.00
506;DHT22;551;48.524;9.056;2023-11-19T00:37:18;10.10;1.00
506;DHT22;551;48.524;9.056;2023-11-19T00:39:43;10.10;1.00
506;DHT22;551;48.524;9.056;2023-11-19T00:42:09;10.10;1.00
506;DHT22;551;48.524;9.056;2023-11-19T00:44:38;10.10;1.00
506;DHT22;551;48.524;9.056;2023-11-19T00:47:04;10.20;1.00
506;DHT22;551;48.524;9.056;2023-11-19T00:49:30;10.20;1.00
506;DHT22;551;48.524;9.056;2023-11-19T00:51:58;10.30;1.00
506;DHT22;551;48.524;9.056;2023-11-19T00:54:24;10.30;1.00
506;DHT22;551;48.524;9.056;2023-11-19T00:56:52;10.30;1.00
506;DHT22;551;48.524;9.056;2023-11-19T00:59:18;10.30;1.00
506;DHT22;551;48.524;9.056;2023-11-19T01:01:43;10.30;1.00
506;DHT22;551;48.524;9.056;2023-11-19T01:04:09;10.30;1.00
506;DHT22;551;48.524;9.056;2023-11-19T01:06:34;10.30;1.00
506;DHT22;551;48.524;9.056;2023-11-19T01:08:59;10.30;1.00
506;DHT22;551;48.524;9.056;2023-11-19T01:11:26;10.40;1.00
506;DHT22;551;48.524;9.056;2023-11-19T01:13:52;10.40;1.00
506;DHT22;551;48.524;9.056;2023-11-19T01:16:18;10.50;1.00
506;DHT22;551;48.524;9.056;2023-11-19T01:18:44;10.60;1.00
506;DHT22;551;48.524;9.056;2023-11-19T01:21:10;10.60;1.00
506;DHT22;551;48.524;9.056;2023-11-19T01:23:36;10.60;1.00
506;DHT22;551;48.524;9.056;2023-11-19T01:26:02;10.60;1.00
506;DHT22;551;48.524;9.056;2023-11-19T01:28:28;10.60;1.00
506;DHT22;551;48.524;9.056;2023-11-19T01:30:53;10.60;1.00
506;DHT22;551;48.524;9.056;2023-11-19T01:33:19;10.70;1.00
506;DHT22;551;48.524;9.056;2023-11-19T01:35:44;10.70;1.00
506;DHT22;551;48.524;9.056;2023-11-19T01:38:10;10.70;1.00
506;DHT22;551;48.524;9.056;2023-11-19T01:40:36;10.70;1.00
506;DHT22;551;48.524;9.056;2023-11-19T01:43:03;10.60;1.00
506;DHT22;551;48.524;9.056;2023-11-19T01:45:30;10.70;1.00
506;DHT22;551;48.524;9.056;2023-11-19T01:47:57;10.70;1.00
506;DHT22;551;48.524;9.056;2023-11-19T01:50:23;10.70;1.00
506;DHT22;551;48.524;9.056;2023-11-19T01:52:53;10.70;1.00
506;DHT22;551;48.524;9.056;2023-11-19T01:55:20;10.70;1.00
506;DHT22;551;48.524;9.056;2023-11-19T01:57:47;10.70;1.00
506;DHT22;551;48.524;9.056;2023-11-19T02:00:13;10.70;1.00
506;DHT22;551;48.524;9.056;2023-11-19T02:02:40;10.70;1.00
506;DHT22;551;48.524;9.056;2023-11-19T02:05:06;10.80;1.00
506;DHT22;551;48.524;9.056;2023-11-19T02:07:32;10.80;1.00
506;DHT22;551;48.524;9.056;2023-11-19T02:09:58;10.80;1.00
506;DHT22;551;48.524;9.056;2023-11-19T02:12:28;10.70;1.00
506;DHT22;551;48.524;9.056;2023-11-19T02:14:54;10.80;1.00
506;DHT22;551;48.524;9.056;2023-11-19T02:17:26;10.80;1.00
506;DHT22;551;48.524;9.056;2023-11-19T02:19:52;10.80;1.00
506;DHT22;551;48.524;9.056;2023-11-19T02:22:17;10.80;1.00
506;DHT22;551;48.524;9.056;2023-11-19T02:24:44;10.80;1.00
506;DHT22;551;48.524;9.056;2023-11-19T02:27:16;10.80;1.00
506;DHT22;551;48.524;9.056;2023-11-19T02:29:45;10.80;1.00
506;DHT22;551;48.524;9.056;2023-11-19T02:32:11;10.90;1.00
506;DHT22;551;48.524;9.056;2023-11-19T02:34:38;10.90;1.00
506;DHT22;551;48.524;9.056;2023-11-19T02:37:04;10.80;1.00
506;DHT22;551;48.524;9.056;2023-11-19T02:39:30;10.90;1.00
506;DHT22;551;48.524;9.056;2023-11-19T02:41:55;10.90;1.00
506;DHT22;551;48.524;9.056;2023-11-19T02:44:21;10.80;1.00
506;DHT22;551;48.524;9.056;2023-11-19T02:46:46;10.80;1.00
506;DHT22;551;48.524;9.056;2023-11-19T02:49:14;10.80;1.00
506;DHT22;551;48.524;9.056;2023-11-19T02:51:39;10.80;1.00
506;DHT22;551;48.524;9.056;2023-11-19T02:54:05;10.80;1.00
506;DHT22;551;48.524;9.056;2023-11-19T02:56:30;10.90;1.00
506;DHT22;551;48.524;9.056;2023-11-19T02:59:00;10.90;1.00
506;DHT22;551;48.524;9.056;2023-11-19T03:01:33;10.90;1.00
506;DHT22;551;48.524;9.056;2023-11-19T03:04:01;10.90;1.00
506;DHT22;551;48.524;9.056;2023-11-19T03:06:27;10.90;1.00
506;DHT22;551;48.524;9.056;2023-11-19T03:08:54;10.90;1.00
506;DHT22;551;48.524;9.056;2023-11-19T03:11:20;10.90;1.00
506;DHT22;551;48.524;9.056;2023-11-19T03:13:45;10.90;1.00
506;DHT22;551;48.524;9.056;2023-11-19T03:16:12;10.90;1.00
506;DHT22;551;48.524;9.056;2023-11-19T03:18:38;10.90;1.00
506;DHT22;551;48.524;9.056;2023-11-19T03:21:06;10.90;1.00
506;DHT22;551;48.524;9.056;2023-11-19T03:23:31;11.00;1.00
506;DHT22;551;48.524;9.056;2023-11-19T03:25:57;11.00;1.00
506;DHT22;551;48.524;9.056;2023-11-19T03:28:22;11.00;1.00
506;DHT22;551;48.524;9.056;2023-11-19T03:30:48;11.00;1.00
506;DHT22;551;48.524;9.056;2023-11-19T03:33:13;11.10;1.00
506;DHT22;551;48.524;9.056;2023-11-19T03:35:39;11.10;1.00
506;DHT22;551;48.524;9.056;2023-11-19T03:38:06;11.10;1.00
506;DHT22;551;48.524;9.056;2023-11-19T03:40:32;11.10;1.00
506;DHT22;551;48.524;9.056;2023-11-19T03:42:57;11.10;1.00
506;DHT22;551;48.524;9.056;2023-11-19T03:45:24;11.10;1.00
506;DHT22;551;48.524;9.056;2023-11-19T03:47:50;11.20;1.00
506;DHT22;551;48.524;9.056;2023-11-19T03:50:16;11.20;1.00
506;DHT22;551;48.524;9.056;2023-11-19T03:52:41;11.20;1.00
506;DHT22;551;48.524;9.056;2023-11-19T03:55:07;11.20;1.00
506;DHT22;551;48.524;9.056;2023-11-19T03:57:34;11.20;1.00
506;DHT22;551;48.524;9.056;2023-11-19T04:00:00;11.20;1.00
506;DHT22;551;48.524;9.056;2023-11-19T04:02:27;11.20;1.00
506;DHT22;551;48.524;9.056;2023-11-19T04:04:53;11.20;1.00
506;DHT22;551;48.524;9.056;2023-11-19T04:07:19;11.30;1.00
506;DHT22;551;48.524;9.056;2023-11-19T04:09:45;11.20;1.00
506;DHT22;551;48.524;9.056;2023-11-19T04:12:12;11.30;1.00
506;DHT22;551;48.524;9.056;2023-11-19T04:14:37;11.30;1.00
506;DHT22;551;48.524;9.056;2023-11-19T04:17:03;11.40;1.00
506;DHT22;551;48.524;9.056;2023-11-19T04:19:28;11.40;1.00
506;DHT22;551;48.524;9.056;2023-11-19T04:21:54;11.40;1.00
506;DHT22;551;48.524;9.056;2023-11-19T04:24:19;11.50;1.00
506;DHT22;551;48.524;9.056;2023-11-19T04:26:45;11.50;1.00
506;DHT22;551;48.524;9.056;2023-11-19T04:29:15;11.60;1.00
506;DHT22;551;48.524;9.056;2023-11-19T04:31:45;11.60;1.00
506;DHT22;551;48.524;9.056;2023-11-19T04:34:11;11.60;1.00
506;DHT22;551;48.524;9.056;2023-11-19T04:36:36;11.60;1.00
506;DHT22;551;48.524;9.056;2023-11-19T04:39:03;11.60;1.00
506;DHT22;551;48.524;9.056;2023-11-19T04:41:34;11.60;1.00
506;DHT22;551;48.524;9.056;2023-11-19T04:43:59;11.60;1.00
506;DHT22;551;48.524;9.056;2023-11-19T04:46:25;11.60;1.00
506;DHT22;551;48.524;9.056;2023-11-19T04:48:50;11.60;1.00
506;DHT22;551;48.524;9.056;2023-11-19T04:51:16;11.70;1.00
506;DHT22;551;48.524;9.056;2023-11-19T04:53:42;11.70;1.00
506;DHT22;551;48.524;9.056;2023-11-19T04:56:11;11.70;1.00
506;DHT22;551;48.524;9.056;2023-11-19T04:58:37;11.80;1.00
506;DHT22;551;48.524;9.056;2023-11-19T05:01:03;11.90;1.00
506;DHT22;551;48.524;9.056;2023-11-19T05:03:30;11.80;1.00
506;DHT22;551;48.524;9.056;2023-11-19T05:05:56;11.90;1.00
506;DHT22;551;48.524;9.056;2023-11-19T05:08:22;11.90;1.00
506;DHT22;551;48.524;9.056;2023-11-19T05:10:47;11.90;1.00
506;DHT22;551;48.524;9.056;2023-11-19T05:13:13;11.90;1.00
506;DHT22;551;48.524;9.056;2023-11-19T05:15:38;11.90;1.00
506;DHT22;551;48.524;9.056;2023-11-19T05:18:04;12.00;1.00
506;DHT22;551;48.524;9.056;2023-11-19T05:20:30;12.00;1.00
506;DHT22;551;48.524;9.056;2023-11-19T05:22:56;12.20;1.00
506;DHT22;551;48.524;9.056;2023-11-19T05:25:25;12.10;1.00
506;DHT22;551;48.524;9.056;2023-11-19T05:27:52;12.20;1.00
506;DHT22;551;48.524;9.056;2023-11-19T05:30:17;12.30;1.00
506;DHT22;551;48.524;9.056;2023-11-19T05:32:43;12.40;1.00
506;DHT22;551;48.524;9.056;2023-11-19T05:35:08;12.40;1.00
506;DHT22;551;48.524;9.056;2023-11-19T05:37:34;12.40;1.00
506;DHT22;551;48.524;9.056;2023-11-19T05:40:00;12.50;1.00
506;DHT22;551;48.524;9.056;2023-11-19T05:42:28;12.50;1.00
506;DHT22;551;48.524;9.056;2023-11-19T05:44:53;12.50;1.00
506;DHT22;551;48.524;9.056;2023-11-19T05:47:19;12.50;1.00
506;DHT22;551;48.524;9.056;2023-11-19T05:49:44;12.50;1.00
506;DHT22;551;48.524;9.056;2023-11-19T05:52:10;12.50;1.00
506;DHT22;551;48.524;9.056;2023-11-19T05:54:37;12.50;1.00
506;DHT22;551;48.524;9.056;2023-11-19T05:57:04;12.50;1.00
506;DHT22;551;48.524;9.056;2023-11-19T05:59:30;12.60;1.00
506;DHT22;551;48.524;9.056;2023-11-19T06:01:57;12.60;1.00
506;DHT22;551;48.524;9.056;2023-11-19T06:04:23;12.60;1.00
506;DHT22;551;48.524;9.056;2023-11-19T06:06:48;12.60;1.00
506;DHT22;551;48.524;9.056;2023-11-19T06:09:14;12.60;1.00
506;DHT22;551;48.524;9.056;2023-11-19T06:11:39;12.70;1.00
506;DHT22;551;48.524;9.056;2023-11-19T06:14:06;12.70;1.00
506;DHT22;551;48.524;9.056;2023-11-19T06:16:31;12.70;1.00
506;DHT22;551;48.524;9.056;2023-11-19T06:18:57;12.70;1.00
506;DHT22;551;48.524;9.056;2023-11-19T06:21:23;12.70;1.00
506;DHT22;551;48.524;9.056;2023-11-19T06:23:50;12.80;1.00
506;DHT22;551;48.524;9.056;2023-11-19T06:26:17;12.80;1.00
506;DHT22;551;48.524;9.056;2023-11-19T06:28:43;12.80;1.00
506;DHT22;551;48.524;9.056;2023-11-19T06:31:10;12.80;1.00
506;DHT22;551;48.524;9.056;2023-11-19T06:33:35;12.80;1.00
506;DHT22;551;48.524;9.056;2023-11-19T06:36:01;12.80;1.00
506;DHT22;551;48.524;9.056;2023-11-19T06:38:26;12.80;1.00
506;DHT22;551;48.524;9.056;2023-11-19T06:40:52;12.80;1.00
506;DHT22;551;48.524;9.056;2023-11-19T06:43:17;12.80;1.00
506;DHT22;551;48.524;9.056;2023-11-19T06:45:43;12.80;1.00
506;DHT22;551;48.524;9.056;2023-11-19T06:48:11;12.80;1.00
506;DHT22;551;48.524;9.056;2023-11-19T06:50:37;12.80;1.00
506;DHT22;551;48.524;9.056;2023-11-19T06:53:02;12.80;1.00
506;DHT22;551;48.524;9.056;2023-11-19T06:55:28;12.90;1.00
506;DHT22;551;48.524;9.056;2023-11-19T06:57:53;12.90;1.00
506;DHT22;551;48.524;9.056;2023-11-19T07:00:22;12.90;1.00
506;DHT22;551;48.524;9.056;2023-11-19T07:02:47;12.90;1.00
506;DHT22;551;48.524;9.056;2023-11-19T07:05:13;12.90;1.00
506;DHT22;551;48.524;9.056;2023-11-19T07:07:39;13.00;1.00
506;DHT22;551;48.524;9.056;2023-11-19T07:10:06;13.00;1.00
506;DHT22;551;48.524;9.056;2023-11-19T07:12:34;13.00;1.00
506;DHT22;551;48.524;9.056;2023-11-19T07:15:01;13.00;1.00
506;DHT22;551;48.524;9.056;2023-11-19T07:17:27;13.10;1.00
506;DHT22;551;48.524;9.056;2023-11-19T07:19:52;13.10;1.00
506;DHT22;551;48.524;9.056;2023-11-19T07:22:18;13.10;1.00
506;DHT22;551;48.524;9.056;2023-11-19T07:24:43;13.10;1.00
506;DHT22;551;48.524;9.056;2023-11-19T07:27:09;13.10;1.00
506;DHT22;551;48.524;9.056;2023-11-19T07:29:35;13.10;1.00
506;DHT22;551;48.524;9.056;2023-11-19T07:32:01;13.10;1.00
506;DHT22;551;48.524;9.056;2023-11-19T07:34:30;13.20;1.00
506;DHT22;551;48.524;9.056;2023-11-19T07:36:55;13.20;1.00
506;DHT22;551;48.524;9.056;2023-11-19T07:39:24;13.20;1.00
506;DHT22;551;48.524;9.056;2023-11-19T07:41:50;13.20;1.00
506;DHT22;551;48.524;9.056;2023-11-19T07:44:15;13.20;1.00
506;DHT22;551;48.524;9.056;2023-11-19T07:46:41;13.30;1.00
506;DHT22;551;48.524;9.056;2023-11-19T07:49:07;13.30;1.00
506;DHT22;551;48.524;9.056;2023-11-19T07:51:33;13.40;1.00
506;DHT22;551;48.524;9.056;2023-11-19T07:53:58;13.40;1.00
506;DHT22;551;48.524;9.056;2023-11-19T07:56:24;13.50;1.00
506;DHT22;551;48.524;9.056;2023-11-19T07:58:50;13.50;1.00
506;DHT22;551;48.524;9.056;2023-11-19T08:01:15;13.50;1.00
506;DHT22;551;48.524;9.056;2023-11-19T08:03:41;13.50;1.00
506;DHT22;551;48.524;9.056;2023-11-19T08:06:06;13.60;1.00
506;DHT22;551;48.524;9.056;2023-11-19T08:08:32;13.60;1.00
506;DHT22;551;48.524;9.056;2023-11-19T08:10:58;13.60;1.00
506;DHT22;551;48.524;9.056;2023-11-19T08:13:24;13.70;1.00
506;DHT22;551;48.524;9.056;2023-11-19T08:15:50;13.70;1.00
506;DHT22;551;48.524;9.056;2023-11-19T08:18:16;13.70;1.00
506;DHT22;551;48.524;9.056;2023-11-19T08:20:43;13.70;1.00
506;DHT22;551;48.524;9.056;2023-11-19T08:23:10;13.70;1.00
506;DHT22;551;48.524;9.056;2023-11-19T08:25:35;13.70;1.00
506;DHT22;551;48.524;9.056;2023-11-19T08:28:01;13.70;1.00
506;DHT22;551;48.524;9.056;2023-11-19T08:30:26;13.80;1.00
506;DHT22;551;48.524;9.056;2023-11-19T08:32:52;13.80;1.00
506;DHT22;551;48.524;9.056;2023-11-19T08:35:18;13.80;1.00
506;DHT22;551;48.524;9.056;2023-11-19T08:37:43;13.80;1.00
506;DHT22;551;48.524;9.056;2023-11-19T08:40:11;13.80;1.00
506;DHT22;551;48.524;9.056;2023-11-19T08:42:37;13.90;1.00
506;DHT22;551;48.524;9.056;2023-11-19T08:45:05;14.00;1.00
506;DHT22;551;48.524;9.056;2023-11-19T08:47:30;14.10;1.00
506;DHT22;551;48.524;9.056;2023-11-19T08:49:56;14.30;1.00
506;DHT22;551;48.524;9.056;2023-11-19T08:52:21;14.50;1.00
506;DHT22;551;48.524;9.056;2023-11-19T08:54:47;14.70;1.00
506;DHT22;551;48.524;9.056;2023-11-19T08:57:13;15.00;1.00
506;DHT22;551;48.524;9.056;2023-11-19T08:59:38;15.10;1.00
506;DHT22;551;48.524;9.056;2023-11-19T09:02:07;15.40;1.00
506;DHT22;551;48.524;9.056;2023-11-19T09:04:33;15.90;1.00
506;DHT22;551;48.524;9.056;2023-11-19T09:06:59;16.40;1.00
506;DHT22;551;48.524;9.056;2023-11-19T09:09:24;16.90;1.00
506;DHT22;551;48.524;9.056;2023-11-19T09:11:50;17.00;1.00
506;DHT22;551;48.524;9.056;2023-11-19T09:14:16;16.90;1.00
506;DHT22;551;48.524;9.056;2023-11-19T09:16:43;17.00;1.00
506;DHT22;551;48.524;9.056;2023-11-19T09:19:09;17.10;1.00
506;DHT22;551;48.524;9.056;2023-11-19T09:21:34;17.00;1.00
506;DHT22;551;48.524;9.056;2023-11-19T09:24:03;16.90;1.00
506;DHT22;551;48.524;9.056;2023-11-19T09:26:28;16.80;1.00
506;DHT22;551;48.524;9.056;2023-11-19T09:28:54;16.60;1.00
506;DHT22;551;48.524;9.056;2023-11-19T09:31:19;16.40;1.00
506;DHT22;551;48.524;9.056;2023-11-19T09:33:45;16.30;1.00
506;DHT22;551;48.524;9.056;2023-11-19T09:36:14;16.50;1.00
506;DHT22;551;48.524;9.056;2023-11-19T09:38:48;16.70;1.00
506;DHT22;551;48.524;9.056;2023-11-19T09:41:14;17.20;1.00
506;DHT22;551;48.524;9.056;2023-11-19T09:43:41;17.80;1.00
506;DHT22;551;48.524;9.056;2023-11-19T09:46:09;18.40;1.00
506;DHT22;551;48.524;9.056;2023-11-19T09:48:37;18.60;1.00
506;DHT22;551;48.524;9.056;2023-11-19T09:51:04;18.50;1.00
506;DHT22;551;48.524;9.056;2023-11-19T09:53:31;18.30;1.00
506;DHT22;551;48.524;9.056;2023-11-19T09:55:59;18.00;1.00
506;DHT22;551;48.524;9.056;2023-11-19T09:58:26;17.90;1.00
506;DHT22;551;48.524;9.056;2023-11-19T10:00:51;17.70;1.00
506;DHT22;551;48.524;9.056;2023-11-19T10:03:17;17.40;1.00
506;DHT22;551;48.524;9.056;2023-11-19T10:05:43;17.10;1.00
506;DHT22;551;48.524;9.056;2023-11-19T10:08:09;16.90;1.00
506;DHT22;551;48.524;9.056;2023-11-19T10:10:36;17.20;1.00
506;DHT22;551;48.524;9.056;2023-11-19T10:13:02;17.50;1.00
506;DHT22;551;48.524;9.056;2023-11-19T10:15:28;17.60;1.00
506;DHT22;551;48.524;9.056;2023-11-19T10:17:56;17.60;1.00
506;DHT22;551;48.524;9.056;2023-11-19T10:20:22;17.60;1.00
506;DHT22;551;48.524;9.056;2023-11-19T10:22:48;17.60;1.00
506;DHT22;551;48.524;9.056;2023-11-19T10:25:24;17.40;1.00
506;DHT22;551;48.524;9.056;2023-11-19T10:27:54;17.30;1.00
506;DHT22;551;48.524;9.056;2023-11-19T10:30:25;17.20;1.00
506;DHT22;551;48.524;9.056;2023-11-19T10:33:08;17.00;1.00
506;DHT22;551;48.524;9.056;2023-11-19T10:35:53;16.90;1.00
506;DHT22;551;48.524;9.056;2023-11-19T10:38:19;17.00;1.00
506;DHT22;551;48.524;9.056;2023-11-19T10:40:45;17.10;1.00
506;DHT22;551;48.524;9.056;2023-11-19T10:43:10;17.00;1.00
506;DHT22;551;48.524;9.056;2023-11-19T10:45:37;16.90;1.00
506;DHT22;551;48.524;9.056;2023-11-19T10:48:04;16.80;1.00
506;DHT22;551;48.524;9.056;2023-11-19T10:50:35;16.80;1.00
506;DHT22;551;48.524;9.056;2023-11-19T10:53:02;17.00;1.00
506;DHT22;551;48.524;9.056;2023-11-19T10:55:30;17.00;1.00
506;DHT22;551;48.524;9.056;2023-11-19T10:58:01;17.20;1.00
506;DHT22;551;48.524;9.056;2023-11-19T11:00:29;17.00;1.00
506;DHT22;551;48.524;9.056;2023-11-19T11:03:01;17.00;1.00
506;DHT22;551;48.524;9.056;2023-11-19T11:05:30;16.90;1.00
506;DHT22;551;48.524;9.056;2023-11-19T11:07:58;16.90;1.00
506;DHT22;551;48.524;9.056;2023-11-19T11:10:26;16.80;1.00
506;DHT22;551;48.524;9.056;2023-11-19T11:12:52;16.80;1.00
506;DHT22;551;48.524;9.056;2023-11-19T11:15:27;16.80;1.00
506;DHT22;551;48.524;9.056;2023-11-19T11:17:59;17.00;1.00
506;DHT22;551;48.524;9.056;2023-11-19T11:20:30;17.30;1.00
506;DHT22;551;48.524;9.056;2023-11-19T11:26:16;17.50;1.00
506;DHT22;551;48.524;9.056;2023-11-19T11:29:03;17.60;1.00
506;DHT22;551;48.524;9.056;2023-11-19T11:31:41;17.80;1.00
506;DHT22;551;48.524;9.056;2023-11-19T11:34:37;17.90;1.00
506;DHT22;551;48.524;9.056;2023-11-19T11:37:11;17.90;1.00
506;DHT22;551;48.524;9.056;2023-11-19T11:39:40;18.10;1.00
506;DHT22;551;48.524;9.056;2023-11-19T11:45:08;18.50;1.00
506;DHT22;551;48.524;9.056;2023-11-19T11:50:15;18.50;1.00
506;DHT22;551;48.524;9.056;2023-11-19T11:55:34;18.20;1.00
506;DHT22;551;48.524;9.056;2023-11-19T11:58:02;18.10;1.00
506;DHT22;551;48.524;9.056;2023-11-19T12:00:30;17.90;1.00
506;DHT22;551;48.524;9.056;2023-11-19T12:02:57;17.80;1.00
506;DHT22;551;48.524;9.056;2023-11-19T12:05:24;17.80;1.00
506;DHT22;551;48.524;9.056;2023-11-19T12:07:56;17.90;1.00
506;DHT22;551;48.524;9.056;2023-11-19T12:10:24;17.90;1.00
506;DHT22;551;48.524;9.056;2023-11-19T12:12:52;17.80;1.00
506;DHT22;551;48.524;9.056;2023-11-19T12:15:18;17.50;1.00
506;DHT22;551;48.524;9.056;2023-11-19T12:17:51;17.40;1.00
506;DHT22;551;48.524;9.056;2023-11-19T12:20:18;17.30;1.00
506;DHT22;551;48.524;9.056;2023-11-19T12:22:45;17.20;1.00
506;DHT22;551;48.524;9.056;2023-11-19T12:25:12;17.30;1.00
506;DHT22;551;48.524;9.056;2023-11-19T12:27:42;17.50;1.00
506;DHT22;551;48.524;9.056;2023-11-19T12:30:08;17.70;1.00
506;DHT22;551;48.524;9.056;2023-11-19T12:32:45;17.70;1.00
506;DHT22;551;48.524;9.056;2023-11-19T12:35:11;17.80;1.00
506;DHT22;551;48.524;9.056;2023-11-19T12:37:43;17.90;1.00
506;DHT22;551;48.524;9.056;2023-11-19T12:42:38;18.50;1.00
506;DHT22;551;48.524;9.056;2023-11-19T12:45:04;19.20;1.00
506;DHT22;551;48.524;9.056;2023-11-19T12:47:30;19.50;1.00
506;DHT22;551;48.524;9.056;2023-11-19T12:49:56;19.40;1.00
506;DHT22;551;48.524;9.056;2023-11-19T12:52:22;19.30;1.00
506;DHT22;551;48.524;9.056;2023-11-19T12:54:49;19.10;1.00
506;DHT22;551;48.524;9.056;2023-11-19T12:57:14;18.80;1.00
506;DHT22;551;48.524;9.056;2023-11-19T12:59:40;18.50;1.00
506;DHT22;551;48.524;9.056;2023-11-19T13:02:06;18.30;1.00
506;DHT22;551;48.524;9.056;2023-11-19T13:04:32;18.10;1.00
506;DHT22;551;48.524;9.056;2023-11-19T13:06:58;18.00;1.00
506;DHT22;551;48.524;9.056;2023-11-19T13:09:25;18.00;1.00
506;DHT22;551;48.524;9.056;2023-11-19T13:11:51;18.40;1.00
506;DHT22;551;48.524;9.056;2023-11-19T13:14:18;18.70;1.00
506;DHT22;551;48.524;9.056;2023-11-19T13:16:44;19.00;1.00
506;DHT22;551;48.524;9.056;2023-11-19T13:19:13;19.00;1.00
506;DHT22;551;48.524;9.056;2023-11-19T13:21:39;18.80;1.00
506;DHT22;551;48.524;9.056;2023-11-19T13:24:08;18.30;1.00
506;DHT22;551;48.524;9.056;2023-11-19T13:26:33;18.10;1.00
506;DHT22;551;48.524;9.056;2023-11-19T13:29:00;17.90;1.00
506;DHT22;551;48.524;9.056;2023-11-19T13:31:26;17.90;1.00
506;DHT22;551;48.524;9.056;2023-11-19T13:33:51;18.40;1.00
506;DHT22;551;48.524;9.056;2023-11-19T13:36:17;18.90;1.00
506;DHT22;551;48.524;9.056;2023-11-19T13:38:42;19.00;1.00
506;DHT22;551;48.524;9.056;2023-11-19T13:41:09;19.00;1.00
506;DHT22;551;48.524;9.056;2023-11-19T13:43:36;18.90;1.00
506;DHT22;551;48.524;9.056;2023-11-19T13:46:03;19.20;1.00
506;DHT22;551;48.524;9.056;2023-11-19T13:48:29;19.80;1.00
506;DHT22;551;48.524;9.056;2023-11-19T13:50:57;20.10;1.00
506;DHT22;551;48.524;9.056;2023-11-19T13:53:22;20.00;1.00
506;DHT22;551;48.524;9.056;2023-11-19T13:55:49;19.90;1.00
506;DHT22;551;48.524;9.056;2023-11-19T13:58:14;19.80;1.00
506;DHT22;551;48.524;9.056;2023-11-19T14:00:41;19.90;1.00
506;DHT22;551;48.524;9.056;2023-11-19T14:03:07;20.20;1.00
506;DHT22;551;48.524;9.056;2023-11-19T14:05:33;20.00;1.00
506;DHT22;551;48.524;9.056;2023-11-19T14:07:58;19.50;1.00
506;DHT22;551;48.524;9.056;2023-11-19T14:10:24;19.20;1.00
506;DHT22;551;48.524;9.056;2023-11-19T14:12:49;19.10;1.00
506;DHT22;551;48.524;9.056;2023-11-19T14:15:15;18.80;1.00
506;DHT22;551;48.524;9.056;2023-11-19T14:17:42;18.50;1.00
506;DHT22;551;48.524;9.056;2023-11-19T14:20:08;18.20;1.00
506;DHT22;551;48.524;9.056;2023-11-19T14:22:43;18.00;1.00
506;DHT22;551;48.524;9.056;2023-11-19T14:25:09;17.80;1.00
506;DHT22;551;48.524;9.056;2023-11-19T14:27:40;17.50;1.00
506;DHT22;551;48.524;9.056;2023-11-19T14:30:07;17.30;1.00
506;DHT22;551;48.524;9.056;2023-11-19T14:32:35;17.20;1.00
506;DHT22;551;48.524;9.056;2023-11-19T14:35:00;16.90;1.00
506;DHT22;551;48.524;9.056;2023-11-19T14:37:26;16.80;1.00
506;DHT22;551;48.524;9.056;2023-11-19T14:39:51;16.70;1.00
506;DHT22;551;48.524;9.056;2023-11-19T14:42:17;16.50;1.00
506;DHT22;551;48.524;9.056;2023-11-19T14:44:43;16.50;1.00
506;DHT22;551;48.524;9.056;2023-11-19T14:47:08;16.50;1.00
506;DHT22;551;48.524;9.056;2023-11-19T14:49:37;16.50;1.00
506;DHT22;551;48.524;9.056;2023-11-19T14:52:04;16.40;1.00
506;DHT22;551;48.524;9.056;2023-11-19T14:54:29;16.40;1.00
506;DHT22;551;48.524;9.056;2023-11-19T14:56:56;16.40;1.00
506;DHT22;551;48.524;9.056;2023-11-19T14:59:22;16.50;1.00
506;DHT22;551;48.524;9.056;2023-11-19T15:01:47;16.40;1.00
506;DHT22;551;48.524;9.056;2023-11-19T15:04:13;16.50;1.00
506;DHT22;551;48.524;9.056;2023-11-19T15:06:38;16.50;1.00
506;DHT22;551;48.524;9.056;2023-11-19T15:09:04;16.50;1.00
506;DHT22;551;48.524;9.056;2023-11-19T15:11:30;16.40;1.00
506;DHT22;551;48.524;9.056;2023-11-19T15:13:56;16.40;1.00
506;DHT22;551;48.524;9.056;2023-11-19T15:16:22;16.30;1.00
506;DHT22;551;48.524;9.056;2023-11-19T15:18:59;16.20;1.00
506;DHT22;551;48.524;9.056;2023-11-19T15:21:26;16.20;1.00
506;DHT22;551;48.524;9.056;2023-11-19T15:23:52;16.00;1.00
506;DHT22;551;48.524;9.056;2023-11-19T15:26:18;16.00;1.00
506;DHT22;551;48.524;9.056;2023-11-19T15:28:44;15.90;1.00
506;DHT22;551;48.524;9.056;2023-11-19T15:31:10;15.80;1.00
506;DHT22;551;48.524;9.056;2023-11-19T15:33:35;15.80;1.00
506;DHT22;551;48.524;9.056;2023-11-19T15:36:01;15.70;1.00
506;DHT22;551;48.524;9.056;2023-11-19T15:38:28;15.70;1.00
506;DHT22;551;48.524;9.056;2023-11-19T15:40:54;15.80;1.00
506;DHT22;551;48.524;9.056;2023-11-19T15:43:20;15.70;1.00
506;DHT22;551;48.524;9.056;2023-11-19T15:45:45;15.70;1.00
506;DHT22;551;48.524;9.056;2023-11-19T15:48:11;15.60;1.00
506;DHT22;551;48.524;9.056;2023-11-19T15:50:39;15.60;1.00
506;DHT22;551;48.524;9.056;2023-11-19T15:53:04;15.50;1.00
506;DHT22;551;48.524;9.056;2023-11-19T15:55:30;15.40;1.00
506;DHT22;551;48.524;9.056;2023-11-19T15:57:56;15.40;1.00
506;DHT22;551;48.524;9.056;2023-11-19T16:00:21;15.40;1.00
506;DHT22;551;48.524;9.056;2023-11-19T16:02:48;15.40;1.00
506;DHT22;551;48.524;9.056;2023-11-19T16:05:15;15.40;1.00
506;DHT22;551;48.524;9.056;2023-11-19T16:07:41;15.30;1.00
506;DHT22;551;48.524;9.056;2023-11-19T16:10:07;15.20;1.00
506;DHT22;551;48.524;9.056;2023-11-19T16:12:36;15.20;1.00
506;DHT22;551;48.524;9.056;2023-11-19T16:15:02;15.10;1.00
506;DHT22;551;48.524;9.056;2023-11-19T16:17:29;15.10;1.00
506;DHT22;551;48.524;9.056;2023-11-19T16:19:55;15.10;1.00
506;DHT22;551;48.524;9.056;2023-11-19T16:22:20;15.10;1.00
506;DHT22;551;48.524;9.056;2023-11-19T16:24:46;15.00;1.00
506;DHT22;551;48.524;9.056;2023-11-19T16:27:14;14.90;1.00
506;DHT22;551;48.524;9.056;2023-11-19T16:29:40;14.90;1.00
506;DHT22;551;48.524;9.056;2023-11-19T16:32:05;14.80;1.00
506;DHT22;551;48.524;9.056;2023-11-19T16:34:32;14.70;1.00
506;DHT22;551;48.524;9.056;2023-11-19T16:37:03;14.70;1.00
506;DHT22;551;48.524;9.056;2023-11-19T16:39:29;14.60;1.00
506;DHT22;551;48.524;9.056;2023-11-19T16:41:55;14.60;1.00
506;DHT22;551;48.524;9.056;2023-11-19T16:44:22;14.50;1.00
506;DHT22;551;48.524;9.056;2023-11-19T16:46:48;14.40;1.00
506;DHT22;551;48.524;9.056;2023-11-19T16:49:13;14.30;1.00
506;DHT22;551;48.524;9.056;2023-11-19T16:51:39;14.30;1.00
506;DHT22;551;48.524;9.056;2023-11-19T16:54:04;14.30;1.00
506;DHT22;551;48.524;9.056;2023-11-19T16:56:30;14.10;1.00
506;DHT22;551;48.524;9.056;2023-11-19T16:58:59;14.10;1.00
506;DHT22;551;48.524;9.056;2023-11-19T17:01:24;14.00;1.00